createdAt,value
2022-08-09T00:00:20.485Z,3.88
2022-08-09T00:02:49.380Z,4.65
2022-08-09T00:06:16.262Z,4.18
2022-08-09T00:08:09.996Z,4.22
2022-08-09T00:10:41.496Z,3.78
2022-08-09T00:13:16.995Z,4.47
2022-08-09T00:15:58.735Z,4.00
2022-08-09T00:18:27.106Z,4.45
2022-08-09T00:20:55.885Z,4.35
2022-08-09T00:23:55.056Z,3.80
2022-08-09T00:26:11.048Z,4.25
2022-08-09T00:28:39.667Z,4.50
2022-08-09T00:31:09.260Z,4.13
2022-08-09T00:33:55.505Z,4.00
2022-08-09T00:36:29.702Z,4.38
2022-08-09T00:38:59.128Z,3.90
2022-08-09T00:44:14.737Z,4.28
2022-08-09T00:44:27.134Z,4.18
2022-08-09T00:47:04.817Z,3.63
2022-08-09T00:49:36.989Z,3.60
2022-08-09T00:52:17.441Z,3.33
2022-08-09T00:54:48.426Z,3.50
2022-08-09T00:57:24.693Z,3.47
2022-08-09T01:00:21.052Z,3.40
2022-08-09T01:03:28.367Z,3.20
2022-08-09T01:06:35.370Z,3.30
2022-08-09T01:09:44.884Z,3.78
2022-08-09T01:12:33.297Z,3.05
2022-08-09T01:15:29.014Z,3.75
2022-08-09T01:18:05.027Z,3.40
2022-08-09T01:20:45.218Z,3.30
2022-08-09T01:24:02.479Z,3.75
2022-08-09T01:26:39.966Z,3.35
2022-08-09T01:29:12.335Z,3.22
2022-08-09T01:32:31.431Z,3.10
2022-08-09T01:37:10.390Z,3.38
2022-08-09T01:39:44.526Z,3.42
2022-08-09T01:44:41.400Z,3.78
2022-08-09T01:47:11.723Z,3.22
2022-08-09T01:49:41.833Z,3.50
2022-08-09T01:52:21.123Z,4.20
2022-08-09T01:54:56.437Z,3.55
2022-08-09T01:57:45.942Z,3.50
2022-08-09T02:00:35.279Z,3.40
2022-08-09T02:03:07.192Z,3.63
2022-08-09T02:06:03.390Z,4.25
2022-08-09T02:08:35.960Z,3.63
2022-08-09T02:11:22.083Z,3.72
2022-08-09T02:14:06.233Z,3.63
2022-08-09T02:16:52.978Z,3.80
2022-08-09T02:19:34.927Z,3.83
2022-08-09T02:22:19.070Z,4.10
2022-08-09T02:25:00.330Z,3.72
2022-08-09T02:27:57.485Z,4.35
2022-08-09T02:30:19.817Z,3.80
2022-08-09T02:32:50.957Z,4.45
2022-08-09T02:36:01.000Z,4.18
2022-08-09T02:38:21.780Z,4.10
2022-08-09T02:41:06.442Z,3.83
2022-08-09T02:43:53.455Z,4.43
2022-08-09T02:46:28.969Z,3.97
2022-08-09T02:49:19.286Z,4.30
2022-08-09T02:51:59.615Z,3.97
2022-08-09T02:54:35.461Z,3.85
2022-08-09T02:57:23.624Z,3.75
2022-08-09T03:00:20.630Z,4.50
2022-08-09T03:02:58.493Z,4.20
2022-08-09T03:05:34.766Z,4.07
2022-08-09T03:08:04.830Z,4.70
2022-08-09T03:10:35.952Z,4.20
2022-08-09T03:13:08.521Z,4.13
2022-08-09T03:15:40.629Z,4.40
2022-08-09T03:18:30.605Z,4.25
2022-08-09T03:20:59.547Z,4.68
2022-08-09T03:23:26.875Z,3.95
2022-08-09T03:26:05.127Z,4.32
2022-08-09T03:28:34.965Z,4.47
2022-08-09T03:31:09.852Z,4.20
2022-08-09T03:33:53.441Z,4.30
2022-08-09T03:36:27.666Z,3.97
2022-08-09T03:38:56.526Z,5.03
2022-08-09T03:41:30.283Z,4.35
2022-08-09T03:44:12.106Z,4.57
2022-08-09T03:46:39.358Z,4.63
2022-08-09T03:49:09.531Z,4.78
2022-08-09T03:51:56.332Z,4.88
2022-08-09T03:54:32.842Z,4.60
2022-08-09T03:57:18.244Z,4.85
2022-08-09T03:59:54.228Z,4.38
2022-08-09T04:02:28.186Z,4.28
2022-08-09T04:05:01.232Z,5.65
2022-08-09T04:07:33.765Z,5.18
2022-08-09T04:10:29.658Z,4.78
2022-08-09T04:13:04.027Z,5.35
2022-08-09T04:15:52.139Z,4.95
2022-08-09T04:18:21.371Z,4.55
2022-08-09T04:20:50.134Z,5.30
2022-08-09T04:23:23.390Z,5.30
2022-08-09T04:25:53.071Z,5.40
2022-08-09T04:28:34.315Z,4.80
2022-08-09T04:31:09.377Z,4.93
2022-08-09T04:33:51.847Z,5.13
2022-08-09T04:36:28.198Z,5.22
2022-08-09T04:44:06.733Z,4.72
2022-08-09T04:46:58.888Z,5.32
2022-08-09T04:49:40.905Z,5.38
2022-08-09T04:52:18.414Z,4.95
2022-08-09T04:54:51.626Z,5.47
2022-08-09T04:57:24.081Z,5.30
2022-08-09T04:59:54.550Z,5.53
2022-08-09T05:02:23.537Z,6.07
2022-08-09T05:04:55.154Z,5.32
2022-08-09T05:07:22.436Z,6.03
2022-08-09T05:09:50.308Z,6.25
2022-08-09T05:12:17.569Z,5.90
2022-08-09T05:14:45.519Z,6.10
2022-08-09T05:18:36.908Z,6.20
2022-08-09T05:19:59.610Z,6.55
2022-08-09T05:23:50.409Z,6.43
2022-08-09T05:25:15.155Z,6.20
2022-08-09T05:27:45.429Z,5.30
2022-08-09T05:30:17.622Z,6.25
2022-08-09T05:32:50.589Z,5.63
2022-08-09T05:35:18.369Z,6.57
2022-08-09T05:37:50.994Z,6.70
2022-08-09T05:40:18.775Z,6.82
2022-08-09T05:42:46.795Z,6.13
2022-08-09T05:45:14.471Z,6.10
2022-08-09T05:47:51.558Z,6.13
2022-08-09T05:50:32.410Z,6.22
2022-08-09T05:53:05.688Z,5.75
2022-08-09T05:55:38.753Z,6.65
2022-08-09T05:58:07.290Z,5.68
2022-08-09T06:00:34.957Z,5.85
2022-08-09T06:03:04.035Z,6.25
2022-08-09T06:05:49.936Z,5.70
2022-08-09T06:08:25.196Z,5.82
2022-08-09T06:10:57.022Z,5.97
2022-08-09T06:13:28.347Z,5.93
2022-08-09T06:16:01.706Z,5.88
2022-08-09T06:18:33.481Z,5.22
2022-08-09T06:21:01.908Z,5.47
2022-08-09T06:23:58.785Z,6.10
2022-08-09T06:26:22.733Z,5.32
2022-08-09T06:29:00.912Z,5.13
2022-08-09T06:31:40.035Z,5.72
2022-08-09T06:34:22.802Z,5.70
2022-08-09T06:36:57.255Z,5.10
2022-08-09T06:39:49.149Z,5.70
2022-08-09T06:42:17.139Z,5.30
2022-08-09T06:44:54.099Z,4.45
2022-08-09T06:47:22.510Z,5.25
2022-08-09T06:50:14.221Z,4.70
2022-08-09T06:52:46.978Z,4.72
2022-08-09T06:55:22.986Z,5.13
2022-08-09T06:58:02.938Z,4.57
2022-08-09T07:00:50.843Z,5.07
2022-08-09T07:03:27.825Z,4.43
2022-08-09T07:06:03.578Z,4.57
2022-08-09T07:08:37.304Z,4.50
2022-08-09T07:11:07.696Z,4.82
2022-08-09T07:13:45.283Z,4.10
2022-08-09T07:16:41.667Z,4.45
2022-08-09T07:19:15.616Z,4.47
2022-08-09T07:21:55.727Z,4.40
2022-08-09T07:24:32.287Z,5.03
2022-08-09T07:27:10.812Z,4.45
2022-08-09T07:29:57.035Z,3.83
2022-08-09T07:32:32.545Z,4.32
2022-08-09T07:35:10.741Z,3.90
2022-08-09T07:37:46.081Z,4.57
2022-08-09T07:40:20.771Z,4.68
2022-08-09T07:42:59.911Z,4.65
2022-08-09T07:45:39.518Z,4.22
2022-08-09T07:48:22.561Z,4.13
2022-08-09T07:51:09.801Z,3.90
2022-08-09T07:54:07.820Z,3.72
2022-08-09T07:56:38.816Z,3.50
2022-08-09T07:59:15.872Z,3.47
2022-08-09T08:01:55.818Z,3.22
2022-08-09T08:04:31.782Z,3.60
2022-08-09T08:07:15.347Z,3.10
2022-08-09T08:09:59.754Z,3.80
2022-08-09T08:12:42.580Z,3.50
2022-08-09T08:15:16.725Z,3.13
2022-08-09T08:17:53.314Z,2.85
2022-08-09T08:20:30.307Z,3.60
2022-08-09T08:23:16.858Z,3.05
2022-08-09T08:25:48.283Z,3.50
2022-08-09T08:28:18.293Z,3.20
2022-08-09T08:30:53.740Z,3.17
2022-08-09T08:33:24.131Z,3.30
2022-08-09T08:35:59.312Z,2.85
2022-08-09T08:38:29.673Z,2.50
2022-08-09T08:40:58.380Z,3.40
2022-08-09T08:43:27.193Z,2.65
2022-08-09T08:46:09.981Z,2.50
2022-08-09T08:48:51.999Z,2.42
2022-08-09T08:51:22.937Z,3.10
2022-08-09T08:54:03.016Z,2.80
2022-08-09T08:56:41.198Z,2.58
2022-08-09T08:59:19.094Z,2.20
2022-08-09T09:01:53.121Z,2.40
2022-08-09T09:07:15.827Z,2.42
2022-08-09T09:10:02.000Z,2.38
2022-08-09T09:12:32.043Z,2.10
2022-08-09T09:15:05.745Z,2.05
2022-08-09T09:17:48.331Z,2.15
2022-08-09T09:20:21.389Z,2.08
2022-08-09T09:23:01.755Z,1.75
2022-08-09T09:26:04.439Z,1.98
2022-08-09T09:29:01.886Z,1.80
2022-08-09T09:32:07.078Z,1.55
2022-08-09T09:34:18.010Z,1.60
2022-08-09T09:36:52.967Z,1.90
2022-08-09T09:39:42.817Z,2.20
2022-08-09T09:42:26.320Z,1.70
2022-08-09T09:45:03.434Z,1.63
2022-08-09T09:47:32.679Z,1.50
2022-08-09T09:50:14.172Z,1.90
2022-08-09T09:52:56.234Z,1.70
2022-08-09T09:55:31.387Z,1.70
2022-08-09T09:58:18.682Z,1.63
2022-08-09T10:00:55.850Z,1.40
2022-08-09T10:03:56.245Z,1.60
2022-08-09T10:06:31.982Z,1.63
2022-08-09T10:09:11.711Z,1.50
2022-08-09T10:12:07.805Z,1.42
2022-08-09T10:14:40.233Z,1.10
2022-08-09T10:17:40.147Z,1.40
2022-08-09T10:20:27.096Z,1.50
2022-08-09T10:23:23.875Z,1.60
2022-08-09T10:26:06.064Z,1.48
2022-08-09T10:28:38.236Z,1.52
2022-08-09T10:34:11.050Z,1.23
2022-08-09T10:36:43.497Z,1.40
2022-08-09T10:39:15.661Z,1.45
2022-08-09T10:41:47.418Z,1.20
2022-08-09T10:44:23.093Z,1.55
2022-08-09T10:48:19.301Z,1.60
2022-08-09T10:51:09.649Z,1.67
2022-08-09T10:53:55.401Z,1.30
2022-08-09T10:56:30.040Z,1.40
2022-08-09T10:59:01.327Z,1.65
2022-08-09T11:03:13.045Z,1.20
2022-08-09T11:04:31.713Z,1.20
2022-08-09T11:07:00.268Z,1.30
2022-08-09T11:09:41.258Z,1.25
2022-08-09T11:12:29.847Z,1.30
2022-08-09T11:15:01.729Z,1.63
2022-08-09T11:17:32.430Z,1.15
2022-08-09T11:20:18.000Z,1.23
2022-08-09T11:22:55.456Z,1.13
2022-08-09T11:25:45.279Z,1.42
2022-08-09T11:28:38.917Z,1.40
2022-08-09T11:31:49.333Z,1.30
2022-08-09T11:34:33.593Z,1.60
2022-08-09T11:37:07.497Z,1.25
2022-08-09T11:40:06.254Z,1.00
2022-08-09T11:42:41.444Z,1.20
2022-08-09T11:45:42.497Z,1.50
2022-08-09T11:48:26.549Z,1.38
2022-08-09T11:54:01.452Z,1.30
2022-08-09T11:56:41.469Z,1.20
2022-08-09T11:59:30.328Z,1.05
2022-08-09T12:02:16.860Z,1.30
2022-08-09T12:04:58.011Z,1.10
2022-08-09T12:07:41.200Z,1.52
2022-08-09T12:10:31.724Z,1.30
2022-08-09T12:13:00.360Z,1.30
2022-08-09T12:15:50.503Z,1.08
2022-08-09T12:18:30.179Z,1.20
2022-08-09T12:21:26.291Z,1.10
2022-08-09T12:24:06.463Z,1.25
2022-08-09T12:28:59.900Z,1.10
2022-08-09T12:29:51.466Z,1.00
2022-08-09T12:32:27.573Z,1.17
2022-08-09T12:35:04.790Z,1.25
2022-08-09T12:37:44.302Z,1.15
2022-08-09T12:40:21.171Z,1.15
2022-08-09T12:42:51.022Z,1.15
2022-08-09T12:45:34.931Z,1.02
2022-08-09T12:48:20.508Z,1.00
2022-08-09T12:50:57.940Z,1.20
2022-08-09T12:53:44.788Z,1.20
2022-08-09T12:56:36.867Z,1.10
2022-08-09T12:59:22.338Z,1.58
2022-08-09T13:01:58.677Z,1.60
2022-08-09T13:04:37.803Z,2.15
2022-08-09T13:07:19.589Z,2.00
2022-08-09T13:09:56.043Z,1.23
2022-08-09T13:12:29.258Z,1.17
2022-08-09T13:15:10.038Z,1.30
2022-08-09T13:18:03.514Z,1.23
2022-08-09T13:21:03.967Z,1.55
2022-08-09T13:24:17.350Z,1.13
2022-08-09T13:26:49.763Z,1.15
2022-08-09T13:29:28.575Z,1.17
2022-08-09T13:32:19.495Z,1.27
2022-08-09T13:34:52.422Z,1.00
2022-08-09T13:37:51.038Z,1.20
2022-08-09T13:41:50.812Z,1.20
2022-08-09T13:42:58.339Z,1.10
2022-08-09T13:45:31.842Z,0.93
2022-08-09T13:48:00.030Z,1.08
2022-08-09T13:50:30.254Z,1.05
2022-08-09T13:55:29.075Z,0.95
2022-08-09T13:57:58.331Z,1.00
2022-08-09T14:00:28.756Z,1.20
2022-08-09T14:03:04.679Z,1.10
2022-08-09T14:06:00.569Z,1.20
2022-08-09T14:08:31.408Z,1.05
2022-08-09T14:11:01.256Z,1.23
2022-08-09T14:14:22.622Z,0.90
2022-08-09T14:16:28.459Z,1.00
2022-08-09T14:18:57.168Z,1.20
2022-08-09T14:21:29.336Z,0.90
2022-08-09T14:24:01.143Z,1.33
2022-08-09T14:26:37.761Z,1.25
2022-08-09T14:29:25.848Z,1.10
2022-08-09T14:31:56.125Z,1.13
2022-08-09T14:34:31.089Z,1.00
2022-08-09T14:37:01.892Z,1.17
2022-08-09T14:39:45.646Z,0.77
2022-08-09T14:42:30.166Z,1.10
2022-08-09T14:46:46.413Z,1.25
2022-08-09T14:47:49.795Z,1.25
2022-08-09T14:50:25.067Z,1.40
2022-08-09T14:52:51.975Z,1.52
2022-08-09T14:55:20.309Z,1.40
2022-08-09T14:57:49.192Z,1.45
2022-08-09T15:00:17.868Z,1.33
2022-08-09T15:02:47.425Z,1.00
2022-08-09T15:05:19.643Z,1.55
2022-08-09T15:07:54.857Z,1.02
2022-08-09T15:10:25.671Z,0.90
2022-08-09T15:12:54.282Z,0.93
2022-08-09T15:15:22.622Z,1.10
2022-08-09T15:17:52.914Z,1.10
2022-08-09T15:21:55.133Z,1.10
2022-08-09T15:24:02.619Z,0.80
2022-08-09T15:25:58.326Z,1.00
2022-08-09T15:28:28.374Z,1.10
2022-08-09T15:31:08.931Z,1.15
2022-08-09T15:34:17.489Z,1.23
2022-08-09T15:36:30.350Z,1.02
2022-08-09T15:39:01.052Z,1.20
2022-08-09T15:41:32.108Z,1.05
2022-08-09T15:44:03.671Z,1.17
2022-08-09T15:46:33.490Z,1.20
2022-08-09T15:49:22.927Z,0.85
2022-08-09T15:52:04.475Z,1.02
2022-08-09T15:54:48.348Z,0.88
2022-08-09T15:57:19.132Z,1.48
2022-08-09T16:00:13.763Z,1.00
2022-08-09T16:02:54.239Z,1.00
2022-08-09T16:05:47.635Z,1.10
2022-08-09T16:08:30.788Z,1.10
2022-08-09T16:11:02.889Z,0.90
2022-08-09T16:14:03.903Z,0.90
2022-08-09T16:16:26.249Z,1.52
2022-08-09T16:18:55.579Z,1.20
2022-08-09T16:21:25.726Z,1.30
2022-08-09T16:23:58.326Z,0.90
2022-08-09T16:26:35.437Z,0.90
2022-08-09T16:29:12.683Z,0.80
2022-08-09T16:32:17.852Z,0.90
2022-08-09T16:34:53.566Z,1.15
2022-08-09T16:37:53.094Z,1.10
2022-08-09T16:40:13.021Z,0.95
2022-08-09T16:42:45.336Z,1.10
2022-08-09T16:45:18.730Z,0.95
2022-08-09T16:48:41.446Z,1.10
2022-08-09T16:50:39.055Z,0.90
2022-08-09T16:53:06.618Z,0.90
2022-08-09T16:55:59.987Z,1.00
2022-08-09T16:58:23.281Z,1.00
2022-08-09T17:00:50.955Z,1.00
2022-08-09T17:03:22.630Z,1.15
2022-08-09T17:09:01.467Z,3.53
2022-08-09T17:11:41.180Z,2.42
2022-08-09T17:14:26.097Z,2.40
2022-08-09T17:17:03.565Z,2.13
2022-08-09T17:19:46.740Z,1.20
2022-08-09T17:22:15.085Z,1.20
2022-08-09T17:24:47.970Z,1.02
2022-08-09T17:27:23.089Z,1.17
2022-08-09T17:29:51.677Z,1.30
2022-08-09T17:32:35.117Z,1.20
2022-08-09T17:35:11.479Z,0.88
2022-08-09T17:38:11.523Z,1.20
2022-08-09T17:40:34.446Z,1.50
2022-08-09T17:43:32.930Z,1.20
2022-08-09T17:46:03.416Z,1.08
2022-08-09T17:48:34.671Z,1.23
2022-08-09T17:51:08.790Z,1.00
2022-08-09T17:53:51.508Z,1.02
2022-08-09T17:56:27.966Z,1.10
2022-08-09T17:58:58.336Z,1.30
2022-08-09T18:02:03.429Z,1.20
2022-08-09T18:04:14.302Z,1.00
2022-08-09T18:06:43.082Z,0.90
2022-08-09T18:09:22.614Z,1.00
2022-08-09T18:12:05.318Z,1.02
2022-08-09T18:14:44.861Z,1.20
2022-08-09T18:17:18.929Z,1.20
2022-08-09T18:20:55.493Z,1.15
2022-08-09T18:22:44.144Z,1.30
2022-08-09T18:25:18.303Z,1.52
2022-08-09T18:28:03.195Z,1.23
2022-08-09T18:30:40.709Z,1.20
2022-08-09T18:33:16.280Z,1.23
2022-08-09T18:35:59.780Z,1.15
2022-08-09T18:38:28.504Z,1.30
2022-08-09T18:40:55.976Z,1.27
2022-08-09T18:43:24.823Z,1.10
2022-08-09T18:46:47.642Z,1.23
2022-08-09T18:49:01.786Z,1.20
2022-08-09T18:51:38.394Z,1.10
2022-08-09T18:54:19.981Z,1.10
2022-08-09T18:56:56.156Z,1.13
2022-08-09T18:59:37.371Z,0.98
2022-08-09T19:02:18.112Z,1.10
2022-08-09T19:04:47.497Z,1.27
2022-08-09T19:07:31.427Z,1.15
2022-08-09T19:10:14.248Z,1.13
2022-08-09T19:12:52.507Z,1.10
2022-08-09T19:15:22.539Z,1.20
2022-08-09T19:17:55.197Z,1.05
2022-08-09T19:20:25.728Z,1.10
2022-08-09T19:22:54.596Z,1.10
2022-08-09T19:25:42.698Z,1.30
2022-08-09T19:28:13.283Z,1.20
2022-08-09T19:30:44.635Z,1.23
2022-08-09T19:33:19.555Z,1.23
2022-08-09T19:35:57.984Z,1.60
2022-08-09T19:38:27.633Z,1.25
2022-08-09T19:40:59.733Z,1.30
2022-08-09T19:44:01.010Z,1.25
2022-08-09T19:46:35.280Z,1.23
2022-08-09T19:50:07.769Z,1.17
2022-08-09T19:51:56.069Z,1.17
2022-08-09T19:54:25.346Z,1.05
2022-08-09T19:56:54.006Z,1.35
2022-08-09T19:59:58.547Z,1.40
2022-08-09T20:02:15.819Z,1.55
2022-08-09T20:04:56.034Z,1.50
2022-08-09T20:07:26.096Z,1.48
2022-08-09T20:10:17.581Z,1.48
2022-08-09T20:12:49.611Z,1.55
2022-08-09T20:16:34.444Z,1.55
2022-08-09T20:18:07.407Z,1.30
2022-08-09T20:20:37.776Z,2.10
2022-08-09T20:23:07.669Z,1.30
2022-08-09T20:25:49.616Z,1.30
2022-08-09T20:28:31.990Z,2.10
2022-08-09T20:31:04.945Z,1.30
2022-08-09T20:33:41.255Z,1.33
2022-08-09T20:36:11.487Z,1.40
2022-08-09T20:41:35.336Z,1.30
2022-08-09T20:44:10.255Z,1.27
2022-08-09T20:46:44.111Z,1.60
2022-08-09T20:49:13.988Z,1.40
2022-08-09T20:51:44.044Z,1.50
2022-08-09T20:54:16.844Z,1.60
2022-08-09T20:56:49.727Z,1.67
2022-08-09T20:59:50.096Z,1.33
2022-08-09T21:02:11.635Z,1.45
2022-08-09T21:05:52.141Z,1.15
2022-08-09T21:07:40.321Z,1.40
2022-08-09T21:10:11.502Z,1.60
2022-08-09T21:12:39.087Z,1.45
2022-08-09T21:15:12.508Z,1.73
2022-08-09T21:18:25.931Z,1.55
2022-08-09T21:20:29.952Z,1.58
2022-08-09T21:22:59.465Z,1.35
2022-08-09T21:26:04.446Z,1.55
2022-08-09T21:28:36.022Z,1.50
2022-08-09T21:31:16.853Z,1.35
2022-08-09T21:33:51.447Z,1.90
2022-08-09T21:36:28.125Z,1.70
2022-08-09T21:38:58.834Z,1.70
2022-08-09T21:42:05.076Z,1.65
2022-08-09T21:44:33.206Z,1.40
2022-08-09T21:47:09.411Z,1.98
2022-08-09T21:49:39.450Z,1.90
2022-08-09T21:52:17.161Z,1.75
2022-08-09T21:54:59.244Z,1.70
2022-08-09T21:57:38.302Z,1.70
2022-08-09T22:00:33.396Z,1.75
2022-08-09T22:03:06.637Z,1.55
2022-08-09T22:05:42.011Z,1.52
2022-08-09T22:08:14.698Z,1.67
2022-08-09T22:11:00.365Z,1.50
2022-08-09T22:13:36.939Z,1.63
2022-08-09T22:16:09.119Z,2.08
2022-08-09T22:18:53.262Z,1.80
2022-08-09T22:21:44.715Z,1.52
2022-08-09T22:24:17.025Z,1.40
2022-08-09T22:26:47.899Z,1.67
2022-08-09T22:29:24.084Z,1.60
2022-08-09T22:31:57.342Z,1.40
2022-08-09T22:34:28.669Z,1.65
2022-08-09T22:36:57.758Z,1.67
2022-08-09T22:39:56.060Z,1.80
2022-08-09T22:42:33.935Z,1.70
2022-08-09T22:48:11.986Z,1.40
2022-08-09T22:48:12.672Z,1.52
2022-08-09T22:50:36.085Z,1.60
2022-08-09T22:53:04.348Z,1.92
2022-08-09T22:56:06.205Z,1.40
2022-08-09T22:58:32.340Z,1.73
2022-08-09T23:01:06.143Z,1.40
2022-08-09T23:04:03.490Z,1.33
2022-08-09T23:06:34.909Z,1.60
2022-08-09T23:09:06.813Z,1.40
2022-08-09T23:11:34.388Z,1.60
2022-08-09T23:14:02.921Z,1.90
2022-08-09T23:16:30.337Z,1.55
2022-08-09T23:18:57.212Z,1.58
2022-08-09T23:21:27.792Z,1.50
2022-08-09T23:28:15.313Z,1.40
2022-08-09T23:30:51.125Z,1.38
2022-08-09T23:33:21.138Z,1.55
2022-08-09T23:36:06.230Z,1.60
2022-08-09T23:38:48.431Z,1.48
2022-08-09T23:41:28.565Z,1.80
2022-08-09T23:44:01.714Z,1.48
2022-08-09T23:46:31.013Z,1.60
2022-08-09T23:49:01.896Z,1.60
2022-08-09T23:51:29.085Z,1.42
2022-08-09T23:54:01.876Z,1.73
2022-08-09T23:56:53.215Z,1.50
2022-08-09T23:59:23.585Z,1.92
